createdAt,value
2019-02-16T00:00:56.750Z,101496.42
2019-02-16T00:03:26.225Z,101497.73
2019-02-16T00:05:55.411Z,101487.83
2019-02-16T00:08:24.736Z,101486.34
2019-02-16T00:10:54.130Z,101482.34
2019-02-16T00:13:23.314Z,101473.66
2019-02-16T00:15:52.680Z,101482.48
2019-02-16T00:18:23.091Z,101475.76
2019-02-16T00:20:52.359Z,101470.25
2019-02-16T00:23:21.581Z,101466.75
2019-02-16T00:25:51.027Z,101474.37
2019-02-16T00:28:20.209Z,101463.07
2019-02-16T00:30:49.802Z,101464.06
2019-02-16T00:33:19.243Z,101458.45
2019-02-16T00:35:48.435Z,101459.63
2019-02-16T00:38:17.643Z,101454.48
2019-02-16T00:40:48.121Z,101453.37
2019-02-16T00:43:17.320Z,101449.38
2019-02-16T00:45:46.549Z,101442.07
2019-02-16T00:48:16.673Z,101447.18
2019-02-16T00:50:45.855Z,101437.86
2019-02-16T00:53:15.066Z,101437.14
2019-02-16T00:55:44.486Z,101439.74
2019-02-16T00:58:13.678Z,101438.84
2019-02-16T01:00:42.911Z,101428.84
2019-02-16T01:03:12.373Z,101425.12
2019-02-16T01:05:41.811Z,101425.44
2019-02-16T01:08:11.042Z,101413.78
2019-02-16T01:10:40.395Z,101412.97
2019-02-16T01:13:09.579Z,101409.30
2019-02-16T01:15:38.802Z,101401.50
2019-02-16T01:18:09.213Z,101398.00
2019-02-16T01:20:38.537Z,101388.72
2019-02-16T01:23:07.775Z,101382.05
2019-02-16T01:25:37.198Z,101391.05
2019-02-16T01:28:06.429Z,101378.86
2019-02-16T01:30:35.685Z,101378.77
2019-02-16T01:33:05.599Z,101366.77
2019-02-16T01:35:34.760Z,101352.69
2019-02-16T01:38:03.948Z,101360.00
2019-02-16T01:40:33.481Z,101352.69
2019-02-16T01:43:02.657Z,101346.69
2019-02-16T01:45:31.910Z,101349.20
2019-02-16T01:48:01.207Z,101344.90
2019-02-16T01:50:30.515Z,101347.09
2019-02-16T01:52:59.747Z,101341.00
2019-02-16T01:55:29.016Z,101341.98
2019-02-16T01:57:58.193Z,101337.28
2019-02-16T02:00:27.432Z,101322.36
2019-02-16T02:02:56.717Z,101307.66
2019-02-16T02:05:25.895Z,101042.15
2019-02-16T02:07:55.101Z,101266.90
2019-02-16T02:10:24.483Z,101315.14
2019-02-16T02:12:53.651Z,101303.35
2019-02-16T02:15:22.881Z,101306.67
2019-02-16T02:17:52.144Z,101304.25
2019-02-16T02:20:21.312Z,101303.76
2019-02-16T02:22:50.521Z,101302.69
2019-02-16T02:25:19.976Z,101304.07
2019-02-16T02:27:49.150Z,101310.08
2019-02-16T02:30:18.389Z,101305.69
2019-02-16T02:32:47.628Z,101296.64
2019-02-16T02:35:17.028Z,101292.88
2019-02-16T02:37:46.251Z,101297.00
2019-02-16T02:40:15.581Z,101301.63
2019-02-16T02:42:44.800Z,101300.05
2019-02-16T02:45:14.036Z,101303.69
2019-02-16T02:47:43.473Z,101301.89
2019-02-16T02:50:12.642Z,101298.80
2019-02-16T02:52:42.029Z,101299.83
2019-02-16T02:55:11.341Z,101293.42
2019-02-16T02:57:40.526Z,101289.66
2019-02-16T03:00:10.060Z,101290.29
2019-02-16T03:02:39.475Z,101284.11
2019-02-16T03:05:09.402Z,101284.73
2019-02-16T03:07:38.776Z,101281.47
2019-02-16T03:10:08.406Z,101270.98
2019-02-16T03:12:37.582Z,101265.20
2019-02-16T03:15:07.235Z,101260.95
2019-02-16T03:17:36.598Z,101262.88
2019-02-16T03:20:06.005Z,101266.36
2019-02-16T03:23:28.558Z,101259.60
2019-02-16T03:26:46.410Z,101258.25
2019-02-16T03:29:37.402Z,101264.77
2019-02-16T03:32:42.533Z,101253.44
2019-02-16T03:35:42.461Z,101246.98
2019-02-16T03:38:52.970Z,101240.34
2019-02-16T03:41:22.424Z,101246.14
2019-02-16T03:43:51.599Z,101243.17
2019-02-16T03:46:20.771Z,101235.51
2019-02-16T03:48:50.328Z,101224.95
2019-02-16T03:51:19.511Z,101229.33
2019-02-16T03:53:48.995Z,101225.44
2019-02-16T03:56:18.536Z,101221.86
2019-02-16T03:58:47.818Z,101221.86
2019-02-16T04:01:17.238Z,101221.67
2019-02-16T04:03:46.682Z,101221.17
2019-02-16T04:06:15.861Z,101216.08
2019-02-16T04:08:45.039Z,101215.06
2019-02-16T04:11:14.316Z,101205.75
2019-02-16T04:13:43.493Z,101200.44
2019-02-16T04:16:12.731Z,101200.13
2019-02-16T04:18:42.021Z,101194.84
2019-02-16T04:21:11.194Z,101185.36
2019-02-16T04:23:40.368Z,101184.38
2019-02-16T04:26:10.598Z,101178.20
2019-02-16T04:28:39.778Z,101167.14
2019-02-16T04:31:08.993Z,101165.66
2019-02-16T04:33:38.450Z,101161.41
2019-02-16T04:36:07.646Z,101156.84
2019-02-16T04:38:36.828Z,101159.13
2019-02-16T04:41:06.243Z,101152.64
2019-02-16T04:43:35.449Z,101156.03
2019-02-16T04:46:04.666Z,101151.34
2019-02-16T04:48:33.971Z,101147.45
2019-02-16T04:51:03.165Z,101144.67
2019-02-16T04:53:32.358Z,101140.60
2019-02-16T04:56:01.792Z,101134.70
2019-02-16T04:58:30.985Z,101131.30
2019-02-16T05:01:00.245Z,101130.62
2019-02-16T05:03:29.589Z,101134.33
2019-02-16T05:05:59.962Z,101125.48
2019-02-16T05:08:29.645Z,101120.11
2019-02-16T05:10:59.177Z,101122.20
2019-02-16T05:13:28.378Z,101123.31
2019-02-16T05:15:57.555Z,101107.98
2019-02-16T05:18:27.185Z,101109.37
2019-02-16T05:20:56.378Z,101112.64
2019-02-16T05:23:25.606Z,101112.33
2019-02-16T05:25:55.607Z,101107.14
2019-02-16T05:28:24.816Z,101103.47
2019-02-16T05:30:54.107Z,101104.67
2019-02-16T05:33:23.545Z,101104.86
2019-02-16T05:35:52.847Z,101105.66
2019-02-16T05:38:22.137Z,101099.67
2019-02-16T05:40:51.571Z,101093.28
2019-02-16T05:43:20.776Z,101092.70
2019-02-16T05:45:50.029Z,101086.03
2019-02-16T05:48:19.493Z,101092.83
2019-02-16T05:50:48.734Z,101092.02
2019-02-16T05:53:17.888Z,101086.97
2019-02-16T05:55:47.219Z,101084.95
2019-02-16T05:58:16.489Z,101072.70
2019-02-16T06:00:45.668Z,101065.05
2019-02-16T06:03:14.984Z,101068.76
2019-02-16T06:05:44.171Z,101066.88
2019-02-16T06:08:13.395Z,101068.39
2019-02-16T06:10:42.839Z,101062.80
2019-02-16T06:13:12.029Z,101065.00
2019-02-16T06:15:44.086Z,101059.59
2019-02-16T06:18:13.304Z,101059.88
2019-02-16T06:20:42.517Z,101065.14
2019-02-16T06:23:12.389Z,101061.35
2019-02-16T06:25:41.705Z,101050.98
2019-02-16T06:28:10.889Z,101056.17
2019-02-16T06:30:40.457Z,101051.97
2019-02-16T06:33:09.685Z,101047.59
2019-02-16T06:35:50.924Z,101048.39
2019-02-16T06:38:20.166Z,101051.88
2019-02-16T06:40:49.356Z,101045.09
2019-02-16T06:43:18.680Z,101044.38
2019-02-16T06:45:48.003Z,101037.58
2019-02-16T06:48:17.195Z,101033.70
2019-02-16T06:50:46.556Z,101034.59
2019-02-16T06:53:15.782Z,101033.78
2019-02-16T06:56:16.177Z,101037.77
2019-02-16T06:58:45.395Z,101040.67
2019-02-16T07:01:14.684Z,101027.70
2019-02-16T07:03:43.996Z,101027.30
2019-02-16T07:06:13.230Z,101029.59
2019-02-16T07:08:44.155Z,101019.00
2019-02-16T07:11:13.602Z,101025.16
2019-02-16T07:13:42.893Z,101031.02
2019-02-16T07:16:43.325Z,101032.67
2019-02-16T07:19:22.392Z,101030.93
2019-02-16T07:21:51.861Z,101027.89
2019-02-16T07:24:21.044Z,101012.36
2019-02-16T07:26:50.339Z,101014.04
2019-02-16T07:29:19.617Z,101017.18
2019-02-16T07:31:49.956Z,101011.62
2019-02-16T07:34:19.209Z,101013.20
2019-02-16T07:36:48.810Z,101003.97
2019-02-16T07:39:18.068Z,100998.63
2019-02-16T07:41:47.311Z,101002.84
2019-02-16T07:44:44.538Z,100999.70
2019-02-16T07:47:48.316Z,100995.30
2019-02-16T07:50:23.274Z,100982.09
2019-02-16T07:53:10.380Z,100980.56
2019-02-16T07:55:49.527Z,100981.91
2019-02-16T07:58:28.305Z,100983.09
2019-02-16T08:01:22.530Z,100979.25
2019-02-16T08:04:15.689Z,100976.25
2019-02-16T08:07:02.915Z,100971.12
2019-02-16T08:09:37.880Z,100971.34
2019-02-16T08:12:29.208Z,100969.57
2019-02-16T08:15:17.748Z,100964.77
2019-02-16T08:18:09.010Z,100969.89
2019-02-16T08:21:03.904Z,100967.14
2019-02-16T08:23:55.660Z,100956.13
2019-02-16T08:26:43.555Z,100958.20
2019-02-16T08:29:29.851Z,100957.61
2019-02-16T08:32:07.437Z,100949.95
2019-02-16T08:34:54.332Z,100950.22
2019-02-16T08:37:42.589Z,100951.66
2019-02-16T08:40:25.259Z,100942.11
2019-02-16T08:43:19.766Z,100942.42
2019-02-16T08:46:10.955Z,100950.51
2019-02-16T08:49:05.174Z,100938.39
2019-02-16T08:52:05.766Z,100938.39
2019-02-16T08:54:52.960Z,100931.22
2019-02-16T08:57:32.986Z,100937.34
2019-02-16T09:00:20.042Z,100937.34
2019-02-16T09:03:07.441Z,100939.23
2019-02-16T09:05:43.397Z,100924.72
2019-02-16T09:08:37.787Z,100924.72
2019-02-16T09:11:32.080Z,100941.45
2019-02-16T09:14:23.597Z,100928.68
2019-02-16T09:17:13.297Z,100927.86
2019-02-16T09:19:55.111Z,100920.66
2019-02-16T09:22:55.349Z,100905.09
2019-02-16T09:25:36.422Z,100887.87
2019-02-16T09:28:30.740Z,100902.17
2019-02-16T09:31:10.739Z,100901.09
2019-02-16T09:33:58.983Z,100910.20
2019-02-16T09:36:37.595Z,100902.77
2019-02-16T09:39:31.855Z,100897.61
2019-02-16T09:42:14.394Z,100890.66
2019-02-16T09:45:01.623Z,100889.73
2019-02-16T09:47:48.636Z,100887.44
2019-02-16T09:50:29.668Z,100896.42
2019-02-16T09:53:20.746Z,100897.97
2019-02-16T09:56:08.967Z,100880.80
2019-02-16T09:59:06.638Z,100864.41
2019-02-16T10:01:54.521Z,100866.69
2019-02-16T10:04:46.509Z,100852.36
2019-02-16T10:07:32.385Z,100836.77
2019-02-16T10:10:12.451Z,100833.84
2019-02-16T10:13:00.631Z,100842.92
2019-02-16T10:15:52.206Z,100837.62
2019-02-16T10:18:33.710Z,100838.00
2019-02-16T10:21:20.939Z,100838.05
2019-02-16T10:24:24.723Z,100828.23
2019-02-16T10:27:10.797Z,100820.13
2019-02-16T10:29:59.496Z,100815.70
2019-02-16T10:32:46.515Z,100796.32
2019-02-16T10:35:33.261Z,100794.07
2019-02-16T10:38:18.163Z,100799.83
2019-02-16T10:41:02.780Z,100793.33
2019-02-16T10:43:51.032Z,100774.73
2019-02-16T10:46:39.285Z,100777.11
2019-02-16T10:49:36.666Z,100787.56
2019-02-16T10:52:22.522Z,100787.16
2019-02-16T10:55:17.451Z,100762.58
2019-02-16T10:58:04.211Z,100757.53
2019-02-16T11:00:51.333Z,100747.52
2019-02-16T11:03:39.579Z,100743.33
2019-02-16T11:06:15.372Z,100732.50
2019-02-16T11:08:54.520Z,100727.91
2019-02-16T11:11:56.622Z,100727.45
2019-02-16T11:14:41.452Z,100691.70
2019-02-16T11:17:35.711Z,100717.86
2019-02-16T11:20:32.917Z,100712.88
2019-02-16T11:23:20.096Z,100711.04
2019-02-16T11:26:14.265Z,100702.20
2019-02-16T11:29:05.353Z,100704.83
2019-02-16T11:31:50.103Z,100704.95
2019-02-16T11:34:47.620Z,100714.17
2019-02-16T11:37:29.445Z,100701.64
2019-02-16T11:40:07.921Z,100688.19
2019-02-16T11:43:00.636Z,100699.48
2019-02-16T11:45:52.809Z,100686.17
2019-02-16T11:48:38.973Z,100689.66
2019-02-16T11:51:20.892Z,100676.80
2019-02-16T11:54:12.036Z,100668.20
2019-02-16T11:56:51.336Z,100678.24
2019-02-16T11:59:27.162Z,100678.54
2019-02-16T12:02:04.983Z,100669.71
2019-02-16T12:05:08.278Z,100679.77
2019-02-16T12:07:58.581Z,100664.25
2019-02-16T12:10:35.998Z,100669.39
2019-02-16T12:13:19.368Z,100659.36
2019-02-16T12:16:16.486Z,100666.16
2019-02-16T12:19:03.989Z,100679.17
2019-02-16T12:21:58.394Z,100653.98
2019-02-16T12:24:32.278Z,100674.66
2019-02-16T12:27:19.421Z,100644.05
2019-02-16T12:30:04.772Z,100635.19
2019-02-16T12:32:53.556Z,100626.87
2019-02-16T12:35:54.194Z,100628.89
2019-02-16T12:38:45.601Z,100622.45
2019-02-16T12:41:33.962Z,100618.11
2019-02-16T12:44:28.428Z,100643.91
2019-02-16T12:47:29.126Z,100658.50
2019-02-16T12:50:23.924Z,100650.87
2019-02-16T12:52:58.616Z,100649.39
2019-02-16T12:55:46.852Z,100650.34
2019-02-16T12:58:38.208Z,100660.39
2019-02-16T13:01:26.864Z,100683.55
2019-02-16T13:04:18.124Z,100672.95
2019-02-16T13:07:12.843Z,100646.28
2019-02-16T13:09:55.431Z,100634.84
2019-02-16T13:12:53.333Z,100653.39
2019-02-16T13:15:39.585Z,100632.87
2019-02-16T13:18:18.412Z,100629.19
2019-02-16T13:20:55.901Z,100502.24
2019-02-16T13:23:39.581Z,100620.97
2019-02-16T13:26:27.273Z,100614.31
2019-02-16T13:29:15.485Z,100472.56
2019-02-16T13:31:51.726Z,100598.50
2019-02-16T13:34:30.737Z,100632.22
2019-02-16T13:37:26.299Z,100607.20
2019-02-16T13:40:02.790Z,100591.48
2019-02-16T13:42:53.405Z,100595.67
2019-02-16T13:45:29.124Z,100580.87
2019-02-16T13:48:18.275Z,100546.03
2019-02-16T13:50:57.148Z,100522.05
2019-02-16T13:53:57.629Z,100521.59
2019-02-16T13:56:54.859Z,100542.60
2019-02-16T13:59:34.464Z,100557.81
2019-02-16T14:02:18.876Z,100526.38
2019-02-16T14:05:09.028Z,100568.83
2019-02-16T14:07:49.573Z,100562.45
2019-02-16T14:10:37.887Z,100560.71
2019-02-16T14:13:25.847Z,100545.17
2019-02-16T14:16:14.244Z,100552.73
2019-02-16T14:18:43.520Z,100555.05
2019-02-16T14:21:12.746Z,100403.53
2019-02-16T14:23:42.063Z,100413.31
2019-02-16T14:26:11.284Z,100552.20
2019-02-16T14:28:40.558Z,100558.48
2019-02-16T14:31:10.123Z,100554.14
2019-02-16T14:33:39.424Z,100563.77
2019-02-16T14:36:08.662Z,100556.53
2019-02-16T14:38:45.898Z,100553.77
2019-02-16T14:41:15.143Z,100546.98
2019-02-16T14:43:44.614Z,100552.88
2019-02-16T14:46:14.002Z,100557.60
2019-02-16T14:48:43.342Z,100556.94
2019-02-16T14:51:12.552Z,100539.22
2019-02-16T14:53:42.006Z,100548.34
2019-02-16T14:56:11.242Z,100552.61
2019-02-16T14:58:40.482Z,100540.62
2019-02-16T15:01:09.871Z,100526.31
2019-02-16T15:03:39.096Z,100525.69
2019-02-16T15:06:08.313Z,100530.33
2019-02-16T15:08:37.658Z,100534.04
2019-02-16T15:11:06.882Z,100535.89
2019-02-16T15:13:36.136Z,100535.89
2019-02-16T15:16:05.450Z,100537.39
2019-02-16T15:18:35.257Z,100396.11
2019-02-16T15:21:04.484Z,100545.72
2019-02-16T15:23:33.999Z,100541.98
2019-02-16T15:26:03.231Z,100546.28
2019-02-16T15:28:32.494Z,100545.68
2019-02-16T15:31:01.962Z,100414.42
2019-02-16T15:33:31.221Z,100567.25
2019-02-16T15:36:00.460Z,100439.54
2019-02-16T15:38:29.861Z,100587.36
2019-02-16T15:40:59.100Z,100611.15
2019-02-16T15:43:28.424Z,100619.20
2019-02-16T15:45:57.869Z,100617.59
2019-02-16T15:48:27.103Z,100630.35
2019-02-16T15:50:56.335Z,100636.95
2019-02-16T15:53:25.851Z,100643.23
2019-02-16T15:55:55.086Z,100653.82
2019-02-16T15:58:24.462Z,100652.19
2019-02-16T16:00:53.875Z,100658.92
2019-02-16T16:03:26.422Z,100655.92
2019-02-16T16:05:56.011Z,100669.20
2019-02-16T16:09:04.439Z,100671.47
2019-02-16T16:11:40.585Z,100511.41
2019-02-16T16:14:16.206Z,100542.08
2019-02-16T16:16:55.041Z,100691.72
2019-02-16T16:19:55.466Z,100704.05
2019-02-16T16:22:55.757Z,100705.06
2019-02-16T16:25:35.524Z,100714.66
2019-02-16T16:28:32.742Z,100721.77
2019-02-16T16:31:23.294Z,100710.08
2019-02-16T16:34:06.028Z,100698.94
2019-02-16T16:36:48.684Z,100717.83
2019-02-16T16:39:24.934Z,100715.03
2019-02-16T16:42:13.212Z,100709.12
2019-02-16T16:45:19.600Z,100721.03
2019-02-16T16:48:06.418Z,100747.28
2019-02-16T16:50:53.406Z,100740.70
2019-02-16T16:53:44.507Z,100754.63
2019-02-16T16:56:38.880Z,100755.52
2019-02-16T16:59:36.125Z,100759.97
2019-02-16T17:02:34.785Z,100765.13
2019-02-16T17:05:23.068Z,100777.68
2019-02-16T17:08:02.311Z,100781.40
2019-02-16T17:10:53.445Z,100789.16
2019-02-16T17:13:50.768Z,100796.84
2019-02-16T17:16:37.894Z,100818.59
2019-02-16T17:19:26.233Z,100811.53
2019-02-16T17:22:32.738Z,100806.60
2019-02-16T17:25:09.851Z,100812.58
2019-02-16T17:27:49.663Z,100811.34
2019-02-16T17:30:36.563Z,100814.42
2019-02-16T17:33:24.952Z,100814.30
2019-02-16T17:36:17.251Z,100814.51
2019-02-16T17:39:14.620Z,100814.03
2019-02-16T17:41:50.986Z,100818.77
2019-02-16T17:44:39.219Z,100813.30
2019-02-16T17:47:29.411Z,100816.72
2019-02-16T17:50:06.564Z,100813.85
2019-02-16T17:53:04.278Z,100820.72
2019-02-16T17:55:51.379Z,100841.42
2019-02-16T17:58:41.073Z,100821.41
2019-02-16T18:01:29.272Z,100824.90
2019-02-16T18:04:16.514Z,100839.98
2019-02-16T18:07:23.477Z,100845.19
2019-02-16T18:10:10.674Z,100841.28
2019-02-16T18:12:51.848Z,100842.11
2019-02-16T18:15:40.259Z,100845.53
2019-02-16T18:18:31.840Z,100861.92
2019-02-16T18:21:29.459Z,100848.69
2019-02-16T18:24:03.061Z,100851.16
2019-02-16T18:26:56.525Z,100862.95
2019-02-16T18:29:56.830Z,100847.67
2019-02-16T18:42:06.779Z,100863.91
2019-02-16T18:45:01.278Z,100860.06
2019-02-16T18:47:53.875Z,100859.79
2019-02-16T18:50:51.298Z,100868.96
2019-02-16T18:53:35.583Z,100866.83
2019-02-16T18:56:29.772Z,100750.79
2019-02-16T19:03:47.006Z,100880.02
2019-02-16T19:06:33.566Z,100893.19
2019-02-16T19:09:12.973Z,100895.38
2019-02-16T19:11:55.748Z,100889.13
2019-02-16T19:15:37.587Z,100894.00
2019-02-16T19:18:24.341Z,100901.92
2019-02-16T19:21:12.496Z,100904.78
2019-02-16T19:23:52.937Z,100901.55
2019-02-16T19:26:44.711Z,100901.07
2019-02-16T19:29:32.863Z,100913.52
2019-02-16T19:32:24.256Z,100912.55
2019-02-16T19:35:18.343Z,100908.02
2019-02-16T19:38:02.563Z,100922.73
2019-02-16T19:40:53.515Z,100918.68
2019-02-16T19:43:31.681Z,100926.74
2019-02-16T19:46:10.469Z,100932.20
2019-02-16T19:48:57.761Z,100931.23
2019-02-16T19:51:43.258Z,100938.95
2019-02-16T19:54:29.895Z,100942.70
2019-02-16T19:57:26.358Z,100953.44
2019-02-16T20:00:09.417Z,100948.57
2019-02-16T20:02:47.621Z,100951.83
2019-02-16T20:05:26.996Z,100943.06
2019-02-16T20:08:20.243Z,100926.00
2019-02-16T20:11:27.613Z,100957.53
2019-02-16T20:14:04.192Z,100963.39
2019-02-16T20:16:51.814Z,100974.45
2019-02-16T20:19:43.105Z,100976.84
2019-02-16T20:22:30.144Z,100972.30
2019-02-16T20:25:27.626Z,100978.56
2019-02-16T20:28:11.576Z,100980.11
2019-02-16T20:30:57.210Z,100992.94
2019-02-16T20:33:48.645Z,101003.66
2019-02-16T20:36:36.952Z,101004.80
2019-02-16T20:39:19.195Z,101008.12
2019-02-16T20:41:54.821Z,101009.19
2019-02-16T20:44:41.114Z,101012.02
2019-02-16T20:47:35.238Z,101017.86
2019-02-16T20:50:22.792Z,101016.00
2019-02-16T20:53:08.544Z,101021.34
2019-02-16T20:56:00.458Z,101018.99
2019-02-16T20:58:57.863Z,101033.19
2019-02-16T21:01:44.800Z,101039.60
2019-02-16T21:04:34.540Z,101048.44
2019-02-16T21:07:23.229Z,101051.84
2019-02-16T21:10:26.723Z,101051.67
2019-02-16T21:13:02.933Z,101049.72
2019-02-16T21:15:42.403Z,101050.04
2019-02-16T21:18:31.152Z,101052.88
2019-02-16T21:21:18.159Z,101049.30
2019-02-16T21:23:57.300Z,101056.83
2019-02-16T21:26:47.788Z,101073.22
2019-02-16T21:29:28.693Z,101074.34
2019-02-16T21:32:20.205Z,101072.47
2019-02-16T21:35:07.790Z,101075.78
2019-02-16T21:38:05.589Z,101080.40
2019-02-16T21:40:51.623Z,101090.20
2019-02-16T21:43:39.806Z,101094.73
2019-02-16T21:46:31.210Z,101105.02
2019-02-16T21:49:24.760Z,101118.22
2019-02-16T21:52:19.075Z,101122.84
2019-02-16T21:55:06.191Z,101128.34
2019-02-16T21:57:54.843Z,101125.56
2019-02-16T22:00:43.331Z,101121.00
2019-02-16T22:03:34.899Z,101127.72
2019-02-16T22:06:21.935Z,101130.12
2019-02-16T22:09:00.600Z,101139.52
2019-02-16T22:11:45.824Z,101133.66
2019-02-16T22:14:15.622Z,101104.05
2019-02-16T22:16:45.217Z,101134.19
2019-02-16T22:19:14.639Z,101131.33
2019-02-16T22:21:44.146Z,101131.55
2019-02-16T22:24:13.563Z,101136.95
2019-02-16T22:26:42.773Z,101131.09
2019-02-16T22:29:12.095Z,101138.37
2019-02-16T22:31:41.483Z,101134.80
2019-02-16T22:34:10.967Z,101137.70
2019-02-16T22:36:40.454Z,101131.03
2019-02-16T22:39:10.683Z,101132.45
2019-02-16T22:41:39.897Z,101137.45
2019-02-16T22:44:10.135Z,101134.98
2019-02-16T22:46:39.426Z,101136.68
2019-02-16T22:49:08.621Z,101141.38
2019-02-16T22:51:38.083Z,101151.55
2019-02-16T22:54:07.280Z,101146.18
2019-02-16T22:56:36.483Z,101149.48
2019-02-16T22:59:05.976Z,101145.80
2019-02-16T23:01:35.454Z,101154.69
2019-02-16T23:04:04.754Z,101161.78
2019-02-16T23:06:34.170Z,101165.87
2019-02-16T23:09:05.076Z,101159.61
2019-02-16T23:11:34.332Z,101159.81
2019-02-16T23:14:03.763Z,101162.62
2019-02-16T23:16:33.032Z,101164.12
2019-02-16T23:19:02.283Z,101172.09
2019-02-16T23:21:31.703Z,101181.08
2019-02-16T23:24:00.931Z,101186.95
2019-02-16T23:26:30.184Z,101188.05
2019-02-16T23:28:59.659Z,101193.64
2019-02-16T23:31:28.870Z,101199.42
2019-02-16T23:33:58.205Z,101207.59
2019-02-16T23:36:27.911Z,101215.27
2019-02-16T23:38:57.104Z,101211.78
2019-02-16T23:41:26.297Z,101215.27
2019-02-16T23:43:55.747Z,101221.54
2019-02-16T23:46:24.942Z,101219.25
2019-02-16T23:48:54.171Z,101231.41
2019-02-16T23:51:23.847Z,101230.91
2019-02-16T23:53:53.061Z,101232.59
2019-02-16T23:56:22.317Z,101232.80
2019-02-16T23:58:51.736Z,101244.55
